sensor_id;sensor_type;location;lat;lon;timestamp;P1;durP1;ratioP1;P2;durP2;ratioP2
38940;SDS011;43236;47.208;7.518;2022-08-18T00:02:30;8.55;;;4.75;;
38940;SDS011;43236;47.208;7.518;2022-08-18T00:05:17;9.98;;;4.50;;
38940;SDS011;43236;47.208;7.518;2022-08-18T00:08:06;9.60;;;5.05;;
38940;SDS011;43236;47.208;7.518;2022-08-18T00:10:54;9.30;;;5.00;;
38940;SDS011;43236;47.208;7.518;2022-08-18T00:13:42;7.28;;;4.47;;
38940;SDS011;43236;47.208;7.518;2022-08-18T00:16:29;7.90;;;3.90;;
38940;SDS011;43236;47.208;7.518;2022-08-18T00:19:16;12.35;;;4.93;;
38940;SDS011;43236;47.208;7.518;2022-08-18T00:22:04;8.68;;;4.32;;
38940;SDS011;43236;47.208;7.518;2022-08-18T00:24:54;8.93;;;5.05;;
38940;SDS011;43236;47.208;7.518;2022-08-18T00:27:42;8.85;;;4.70;;
38940;SDS011;43236;47.208;7.518;2022-08-18T00:30:29;10.57;;;5.00;;
38940;SDS011;43236;47.208;7.518;2022-08-18T00:33:17;8.35;;;4.45;;
38940;SDS011;43236;47.208;7.518;2022-08-18T00:36:04;6.75;;;4.25;;
38940;SDS011;43236;47.208;7.518;2022-08-18T00:38:51;8.27;;;4.70;;
38940;SDS011;43236;47.208;7.518;2022-08-18T00:41:40;11.90;;;4.70;;
38940;SDS011;43236;47.208;7.518;2022-08-18T00:44:28;8.10;;;4.63;;
38940;SDS011;43236;47.208;7.518;2022-08-18T00:47:15;11.32;;;5.03;;
38940;SDS011;43236;47.208;7.518;2022-08-18T00:50:02;8.07;;;4.45;;
38940;SDS011;43236;47.208;7.518;2022-08-18T00:52:51;13.50;;;4.88;;
38940;SDS011;43236;47.208;7.518;2022-08-18T00:55:41;10.05;;;4.88;;
38940;SDS011;43236;47.208;7.518;2022-08-18T00:58:35;12.07;;;4.88;;
38940;SDS011;43236;47.208;7.518;2022-08-18T01:01:26;9.80;;;4.97;;
38940;SDS011;43236;47.208;7.518;2022-08-18T01:04:17;10.85;;;5.30;;
38940;SDS011;43236;47.208;7.518;2022-08-18T01:07:10;15.93;;;5.57;;
38940;SDS011;43236;47.208;7.518;2022-08-18T01:09:59;10.88;;;5.50;;
38940;SDS011;43236;47.208;7.518;2022-08-18T01:12:51;11.07;;;5.30;;
38940;SDS011;43236;47.208;7.518;2022-08-18T01:15:41;8.02;;;5.13;;
38940;SDS011;43236;47.208;7.518;2022-08-18T01:18:28;11.38;;;5.47;;
38940;SDS011;43236;47.208;7.518;2022-08-18T01:21:32;9.50;;;4.97;;
38940;SDS011;43236;47.208;7.518;2022-08-18T01:24:39;8.80;;;4.70;;
38940;SDS011;43236;47.208;7.518;2022-08-18T01:27:58;7.97;;;4.40;;
38940;SDS011;43236;47.208;7.518;2022-08-18T01:30:48;9.98;;;4.75;;
38940;SDS011;43236;47.208;7.518;2022-08-18T01:33:39;7.68;;;4.40;;
38940;SDS011;43236;47.208;7.518;2022-08-18T01:36:27;14.70;;;4.75;;
38940;SDS011;43236;47.208;7.518;2022-08-18T01:39:14;8.80;;;4.78;;
38940;SDS011;43236;47.208;7.518;2022-08-18T01:42:04;10.95;;;4.85;;
38940;SDS011;43236;47.208;7.518;2022-08-18T01:44:51;10.40;;;4.75;;
38940;SDS011;43236;47.208;7.518;2022-08-18T01:47:38;10.48;;;5.20;;
38940;SDS011;43236;47.208;7.518;2022-08-18T01:50:25;10.65;;;5.15;;
38940;SDS011;43236;47.208;7.518;2022-08-18T01:53:14;9.50;;;5.57;;
38940;SDS011;43236;47.208;7.518;2022-08-18T01:56:03;10.77;;;5.28;;
38940;SDS011;43236;47.208;7.518;2022-08-18T01:58:53;11.15;;;5.82;;
38940;SDS011;43236;47.208;7.518;2022-08-18T02:01:42;9.10;;;5.55;;
38940;SDS011;43236;47.208;7.518;2022-08-18T02:04:32;9.05;;;5.60;;
38940;SDS011;43236;47.208;7.518;2022-08-18T02:07:20;12.70;;;5.70;;
38940;SDS011;43236;47.208;7.518;2022-08-18T02:10:08;11.35;;;5.90;;
38940;SDS011;43236;47.208;7.518;2022-08-18T02:12:55;8.73;;;5.35;;
38940;SDS011;43236;47.208;7.518;2022-08-18T02:15:44;12.48;;;5.88;;
38940;SDS011;43236;47.208;7.518;2022-08-18T02:18:32;11.57;;;5.82;;
38940;SDS011;43236;47.208;7.518;2022-08-18T02:21:21;16.42;;;6.43;;
38940;SDS011;43236;47.208;7.518;2022-08-18T02:24:08;11.48;;;6.18;;
38940;SDS011;43236;47.208;7.518;2022-08-18T02:26:56;16.65;;;6.35;;
38940;SDS011;43236;47.208;7.518;2022-08-18T02:29:43;12.45;;;5.60;;
38940;SDS011;43236;47.208;7.518;2022-08-18T02:32:31;15.20;;;5.70;;
38940;SDS011;43236;47.208;7.518;2022-08-18T02:35:19;11.98;;;5.90;;
38940;SDS011;43236;47.208;7.518;2022-08-18T02:38:06;14.55;;;6.00;;
38940;SDS011;43236;47.208;7.518;2022-08-18T02:40:54;10.50;;;6.18;;
38940;SDS011;43236;47.208;7.518;2022-08-18T02:43:42;12.15;;;5.68;;
38940;SDS011;43236;47.208;7.518;2022-08-18T02:46:29;11.75;;;6.32;;
38940;SDS011;43236;47.208;7.518;2022-08-18T02:49:17;9.45;;;5.70;;
38940;SDS011;43236;47.208;7.518;2022-08-18T02:52:05;10.10;;;5.50;;
38940;SDS011;43236;47.208;7.518;2022-08-18T02:54:53;8.85;;;5.85;;
38940;SDS011;43236;47.208;7.518;2022-08-18T02:57:40;10.75;;;6.05;;
38940;SDS011;43236;47.208;7.518;2022-08-18T03:00:28;12.63;;;5.93;;
38940;SDS011;43236;47.208;7.518;2022-08-18T03:03:15;12.27;;;6.55;;
38940;SDS011;43236;47.208;7.518;2022-08-18T03:06:04;9.15;;;5.72;;
38940;SDS011;43236;47.208;7.518;2022-08-18T03:08:51;13.05;;;6.55;;
38940;SDS011;43236;47.208;7.518;2022-08-18T03:11:39;12.20;;;6.40;;
38940;SDS011;43236;47.208;7.518;2022-08-18T03:14:27;12.07;;;6.10;;
38940;SDS011;43236;47.208;7.518;2022-08-18T03:17:15;14.98;;;6.40;;
38940;SDS011;43236;47.208;7.518;2022-08-18T03:20:02;11.85;;;6.55;;
38940;SDS011;43236;47.208;7.518;2022-08-18T03:22:51;12.13;;;7.28;;
38940;SDS011;43236;47.208;7.518;2022-08-18T03:25:42;18.02;;;6.93;;
38940;SDS011;43236;47.208;7.518;2022-08-18T03:28:30;12.48;;;7.35;;
38940;SDS011;43236;47.208;7.518;2022-08-18T03:31:19;13.20;;;7.30;;
38940;SDS011;43236;47.208;7.518;2022-08-18T03:34:08;13.30;;;7.07;;
38940;SDS011;43236;47.208;7.518;2022-08-18T03:36:55;13.65;;;7.72;;
38940;SDS011;43236;47.208;7.518;2022-08-18T03:39:44;15.80;;;7.70;;
38940;SDS011;43236;47.208;7.518;2022-08-18T03:42:31;12.88;;;7.78;;
38940;SDS011;43236;47.208;7.518;2022-08-18T03:45:18;17.70;;;8.60;;
38940;SDS011;43236;47.208;7.518;2022-08-18T03:48:07;13.75;;;8.48;;
38940;SDS011;43236;47.208;7.518;2022-08-18T03:51:01;18.80;;;8.77;;
38940;SDS011;43236;47.208;7.518;2022-08-18T03:53:49;15.02;;;8.73;;
38940;SDS011;43236;47.208;7.518;2022-08-18T03:56:38;15.57;;;8.27;;
38940;SDS011;43236;47.208;7.518;2022-08-18T03:59:27;12.93;;;7.70;;
38940;SDS011;43236;47.208;7.518;2022-08-18T04:02:16;17.33;;;7.65;;
38940;SDS011;43236;47.208;7.518;2022-08-18T04:05:03;11.52;;;6.88;;
38940;SDS011;43236;47.208;7.518;2022-08-18T04:07:51;12.63;;;7.03;;
38940;SDS011;43236;47.208;7.518;2022-08-18T04:10:39;13.00;;;7.22;;
38940;SDS011;43236;47.208;7.518;2022-08-18T04:13:30;13.30;;;7.18;;
38940;SDS011;43236;47.208;7.518;2022-08-18T04:16:20;11.63;;;7.15;;
38940;SDS011;43236;47.208;7.518;2022-08-18T04:19:07;11.13;;;7.07;;
38940;SDS011;43236;47.208;7.518;2022-08-18T04:21:57;11.20;;;6.78;;
38940;SDS011;43236;47.208;7.518;2022-08-18T04:24:45;11.82;;;6.43;;
38940;SDS011;43236;47.208;7.518;2022-08-18T04:27:34;12.77;;;6.28;;
38940;SDS011;43236;47.208;7.518;2022-08-18T04:30:25;11.57;;;6.60;;
38940;SDS011;43236;47.208;7.518;2022-08-18T04:33:13;11.82;;;6.93;;
38940;SDS011;43236;47.208;7.518;2022-08-18T04:36:05;14.70;;;6.50;;
38940;SDS011;43236;47.208;7.518;2022-08-18T04:38:54;13.30;;;6.78;;
38940;SDS011;43236;47.208;7.518;2022-08-18T04:41:42;12.13;;;7.15;;
38940;SDS011;43236;47.208;7.518;2022-08-18T04:44:29;12.52;;;7.72;;
38940;SDS011;43236;47.208;7.518;2022-08-18T04:47:17;13.60;;;7.22;;
38940;SDS011;43236;47.208;7.518;2022-08-18T04:50:05;13.52;;;8.05;;
38940;SDS011;43236;47.208;7.518;2022-08-18T04:52:53;24.67;;;12.27;;
38940;SDS011;43236;47.208;7.518;2022-08-18T04:56:03;21.52;;;9.43;;
38940;SDS011;43236;47.208;7.518;2022-08-18T04:58:52;13.13;;;7.43;;
38940;SDS011;43236;47.208;7.518;2022-08-18T05:01:40;16.85;;;7.15;;
38940;SDS011;43236;47.208;7.518;2022-08-18T05:04:31;14.45;;;7.63;;
38940;SDS011;43236;47.208;7.518;2022-08-18T05:07:19;13.60;;;7.38;;
38940;SDS011;43236;47.208;7.518;2022-08-18T05:10:08;16.60;;;8.02;;
38940;SDS011;43236;47.208;7.518;2022-08-18T05:12:56;14.98;;;7.53;;
38940;SDS011;43236;47.208;7.518;2022-08-18T05:15:43;15.60;;;7.82;;
38940;SDS011;43236;47.208;7.518;2022-08-18T05:18:31;15.25;;;8.25;;
38940;SDS011;43236;47.208;7.518;2022-08-18T05:21:21;12.32;;;7.53;;
38940;SDS011;43236;47.208;7.518;2022-08-18T05:24:09;12.50;;;7.90;;
38940;SDS011;43236;47.208;7.518;2022-08-18T05:26:56;16.15;;;8.10;;
38940;SDS011;43236;47.208;7.518;2022-08-18T05:29:43;13.70;;;7.55;;
38940;SDS011;43236;47.208;7.518;2022-08-18T05:32:31;14.60;;;8.40;;
38940;SDS011;43236;47.208;7.518;2022-08-18T05:35:21;13.98;;;8.05;;
38940;SDS011;43236;47.208;7.518;2022-08-18T05:38:16;12.65;;;7.32;;
38940;SDS011;43236;47.208;7.518;2022-08-18T05:41:19;13.40;;;7.95;;
38940;SDS011;43236;47.208;7.518;2022-08-18T05:44:13;14.85;;;7.88;;
38940;SDS011;43236;47.208;7.518;2022-08-18T05:47:04;14.20;;;8.00;;
38940;SDS011;43236;47.208;7.518;2022-08-18T05:49:57;15.93;;;9.40;;
38940;SDS011;43236;47.208;7.518;2022-08-18T05:52:51;14.05;;;9.30;;
38940;SDS011;43236;47.208;7.518;2022-08-18T05:55:43;14.65;;;9.18;;
38940;SDS011;43236;47.208;7.518;2022-08-18T05:58:52;14.88;;;9.10;;
38940;SDS011;43236;47.208;7.518;2022-08-18T06:01:42;15.27;;;9.13;;
38940;SDS011;43236;47.208;7.518;2022-08-18T06:04:40;15.55;;;9.40;;
38940;SDS011;43236;47.208;7.518;2022-08-18T06:07:32;15.65;;;9.15;;
38940;SDS011;43236;47.208;7.518;2022-08-18T06:10:26;15.60;;;8.75;;
38940;SDS011;43236;47.208;7.518;2022-08-18T06:13:15;18.92;;;9.50;;
38940;SDS011;43236;47.208;7.518;2022-08-18T06:16:06;19.70;;;9.93;;
38940;SDS011;43236;47.208;7.518;2022-08-18T06:19:00;17.33;;;10.50;;
38940;SDS011;43236;47.208;7.518;2022-08-18T06:22:09;18.55;;;10.90;;
38940;SDS011;43236;47.208;7.518;2022-08-18T06:25:05;18.02;;;11.07;;
38940;SDS011;43236;47.208;7.518;2022-08-18T06:28:00;20.80;;;11.55;;
38940;SDS011;43236;47.208;7.518;2022-08-18T06:30:54;22.88;;;11.80;;
38940;SDS011;43236;47.208;7.518;2022-08-18T06:33:49;17.92;;;10.35;;
38940;SDS011;43236;47.208;7.518;2022-08-18T06:36:46;17.13;;;10.00;;
38940;SDS011;43236;47.208;7.518;2022-08-18T06:39:39;13.23;;;8.43;;
38940;SDS011;43236;47.208;7.518;2022-08-18T06:42:31;16.45;;;9.05;;
38940;SDS011;43236;47.208;7.518;2022-08-18T06:45:18;17.52;;;9.00;;
38940;SDS011;43236;47.208;7.518;2022-08-18T06:48:14;15.57;;;8.00;;
38940;SDS011;43236;47.208;7.518;2022-08-18T06:51:10;15.25;;;7.75;;
38940;SDS011;43236;47.208;7.518;2022-08-18T06:54:01;12.40;;;7.35;;
38940;SDS011;43236;47.208;7.518;2022-08-18T06:56:50;12.55;;;7.65;;
38940;SDS011;43236;47.208;7.518;2022-08-18T06:59:39;15.40;;;8.07;;
38940;SDS011;43236;47.208;7.518;2022-08-18T07:02:30;13.95;;;7.28;;
38940;SDS011;43236;47.208;7.518;2022-08-18T07:05:29;13.13;;;7.22;;
38940;SDS011;43236;47.208;7.518;2022-08-18T07:08:19;14.80;;;7.78;;
38940;SDS011;43236;47.208;7.518;2022-08-18T07:11:17;11.80;;;6.70;;
38940;SDS011;43236;47.208;7.518;2022-08-18T07:14:11;11.10;;;5.18;;
38940;SDS011;43236;47.208;7.518;2022-08-18T07:17:07;8.77;;;5.70;;
38940;SDS011;43236;47.208;7.518;2022-08-18T07:19:56;17.00;;;7.00;;
38940;SDS011;43236;47.208;7.518;2022-08-18T07:22:53;12.27;;;6.57;;
38940;SDS011;43236;47.208;7.518;2022-08-18T07:25:43;10.75;;;6.15;;
38940;SDS011;43236;47.208;7.518;2022-08-18T07:28:33;10.00;;;6.07;;
38940;SDS011;43236;47.208;7.518;2022-08-18T07:31:24;13.85;;;6.55;;
38940;SDS011;43236;47.208;7.518;2022-08-18T07:34:21;11.35;;;5.82;;
38940;SDS011;43236;47.208;7.518;2022-08-18T07:37:14;11.65;;;6.05;;
38940;SDS011;43236;47.208;7.518;2022-08-18T07:40:10;14.75;;;7.18;;
38940;SDS011;43236;47.208;7.518;2022-08-18T07:43:05;10.65;;;6.53;;
38940;SDS011;43236;47.208;7.518;2022-08-18T07:46:01;10.43;;;6.40;;
38940;SDS011;43236;47.208;7.518;2022-08-18T07:48:51;12.32;;;6.78;;
38940;SDS011;43236;47.208;7.518;2022-08-18T07:51:41;12.95;;;6.53;;
38940;SDS011;43236;47.208;7.518;2022-08-18T07:54:38;12.40;;;7.00;;
38940;SDS011;43236;47.208;7.518;2022-08-18T07:57:37;14.48;;;8.07;;
38940;SDS011;43236;47.208;7.518;2022-08-18T08:00:31;14.30;;;7.53;;
38940;SDS011;43236;47.208;7.518;2022-08-18T08:03:38;15.52;;;8.18;;
38940;SDS011;43236;47.208;7.518;2022-08-18T08:06:31;14.57;;;8.70;;
38940;SDS011;43236;47.208;7.518;2022-08-18T08:09:24;19.55;;;9.38;;
38940;SDS011;43236;47.208;7.518;2022-08-18T08:12:23;17.25;;;10.30;;
38940;SDS011;43236;47.208;7.518;2022-08-18T08:15:31;17.10;;;10.75;;
38940;SDS011;43236;47.208;7.518;2022-08-18T08:18:32;16.90;;;10.75;;
38940;SDS011;43236;47.208;7.518;2022-08-18T08:21:28;16.23;;;9.77;;
38940;SDS011;43236;47.208;7.518;2022-08-18T08:24:18;13.98;;;9.48;;
38940;SDS011;43236;47.208;7.518;2022-08-18T08:27:11;16.63;;;8.55;;
38940;SDS011;43236;47.208;7.518;2022-08-18T08:30:05;17.00;;;8.10;;
38940;SDS011;43236;47.208;7.518;2022-08-18T08:32:58;13.98;;;8.52;;
38940;SDS011;43236;47.208;7.518;2022-08-18T08:35:53;14.43;;;8.10;;
38940;SDS011;43236;47.208;7.518;2022-08-18T08:38:48;15.23;;;8.70;;
38940;SDS011;43236;47.208;7.518;2022-08-18T08:41:42;11.68;;;7.60;;
38940;SDS011;43236;47.208;7.518;2022-08-18T08:44:34;15.38;;;7.82;;
38940;SDS011;43236;47.208;7.518;2022-08-18T08:47:28;14.73;;;7.68;;
38940;SDS011;43236;47.208;7.518;2022-08-18T08:50:21;12.15;;;6.68;;
38940;SDS011;43236;47.208;7.518;2022-08-18T08:53:14;10.02;;;6.30;;
38940;SDS011;43236;47.208;7.518;2022-08-18T08:56:07;9.40;;;5.38;;
38940;SDS011;43236;47.208;7.518;2022-08-18T08:58:59;9.85;;;5.90;;
38940;SDS011;43236;47.208;7.518;2022-08-18T09:01:52;10.75;;;5.60;;
38940;SDS011;43236;47.208;7.518;2022-08-18T09:04:48;8.93;;;4.75;;
38940;SDS011;43236;47.208;7.518;2022-08-18T09:08:07;16.95;;;5.05;;
38940;SDS011;43236;47.208;7.518;2022-08-18T09:17:31;15.43;;;4.85;;
38940;SDS011;43236;47.208;7.518;2022-08-18T09:23:52;8.00;;;4.53;;
38940;SDS011;43236;47.208;7.518;2022-08-18T09:26:51;8.10;;;4.85;;
38940;SDS011;43236;47.208;7.518;2022-08-18T09:29:47;8.45;;;5.00;;
38940;SDS011;43236;47.208;7.518;2022-08-18T09:32:51;9.75;;;4.32;;
38940;SDS011;43236;47.208;7.518;2022-08-18T09:35:58;10.20;;;4.88;;
38940;SDS011;43236;47.208;7.518;2022-08-18T09:39:11;11.73;;;4.70;;
38940;SDS011;43236;47.208;7.518;2022-08-18T09:42:26;9.38;;;4.60;;
38940;SDS011;43236;47.208;7.518;2022-08-18T09:45:43;13.80;;;4.57;;
38940;SDS011;43236;47.208;7.518;2022-08-18T09:48:40;8.23;;;3.92;;
38940;SDS011;43236;47.208;7.518;2022-08-18T09:51:32;8.30;;;4.55;;
38940;SDS011;43236;47.208;7.518;2022-08-18T09:54:23;9.82;;;4.93;;
38940;SDS011;43236;47.208;7.518;2022-08-18T09:57:19;8.65;;;4.85;;
38940;SDS011;43236;47.208;7.518;2022-08-18T10:03:21;11.27;;;3.83;;
38940;SDS011;43236;47.208;7.518;2022-08-18T10:06:15;6.13;;;3.70;;
38940;SDS011;43236;47.208;7.518;2022-08-18T10:09:20;7.50;;;3.92;;
38940;SDS011;43236;47.208;7.518;2022-08-18T10:12:19;5.57;;;3.60;;
38940;SDS011;43236;47.208;7.518;2022-08-18T10:15:27;7.07;;;3.58;;
38940;SDS011;43236;47.208;7.518;2022-08-18T10:22:04;7.53;;;3.92;;
38940;SDS011;43236;47.208;7.518;2022-08-18T10:24:55;7.25;;;3.90;;
38940;SDS011;43236;47.208;7.518;2022-08-18T10:27:50;5.38;;;3.40;;
38940;SDS011;43236;47.208;7.518;2022-08-18T10:30:44;10.10;;;3.60;;
38940;SDS011;43236;47.208;7.518;2022-08-18T10:33:53;5.70;;;3.97;;
38940;SDS011;43236;47.208;7.518;2022-08-18T10:36:50;6.93;;;3.80;;
38940;SDS011;43236;47.208;7.518;2022-08-18T10:39:43;6.38;;;3.95;;
38940;SDS011;43236;47.208;7.518;2022-08-18T10:42:34;8.18;;;3.85;;
38940;SDS011;43236;47.208;7.518;2022-08-18T10:45:25;7.22;;;3.78;;
38940;SDS011;43236;47.208;7.518;2022-08-18T10:48:17;6.78;;;3.95;;
38940;SDS011;43236;47.208;7.518;2022-08-18T10:51:12;6.60;;;3.80;;
38940;SDS011;43236;47.208;7.518;2022-08-18T10:54:05;8.93;;;4.18;;
38940;SDS011;43236;47.208;7.518;2022-08-18T10:57:04;9.02;;;4.25;;
38940;SDS011;43236;47.208;7.518;2022-08-18T11:00:01;8.50;;;4.10;;
38940;SDS011;43236;47.208;7.518;2022-08-18T11:02:55;5.97;;;3.80;;
38940;SDS011;43236;47.208;7.518;2022-08-18T11:06:00;6.95;;;3.95;;
38940;SDS011;43236;47.208;7.518;2022-08-18T11:08:50;6.28;;;3.88;;
38940;SDS011;43236;47.208;7.518;2022-08-18T11:11:41;5.13;;;3.45;;
38940;SDS011;43236;47.208;7.518;2022-08-18T11:17:55;8.20;;;3.97;;
38940;SDS011;43236;47.208;7.518;2022-08-18T11:24:17;4.78;;;2.80;;
38940;SDS011;43236;47.208;7.518;2022-08-18T11:27:15;5.65;;;3.00;;
38940;SDS011;43236;47.208;7.518;2022-08-18T11:30:06;6.07;;;3.03;;
38940;SDS011;43236;47.208;7.518;2022-08-18T11:32:55;6.10;;;2.95;;
38940;SDS011;43236;47.208;7.518;2022-08-18T11:35:44;5.78;;;2.92;;
38940;SDS011;43236;47.208;7.518;2022-08-18T11:38:34;6.80;;;3.72;;
38940;SDS011;43236;47.208;7.518;2022-08-18T11:41:24;7.38;;;3.70;;
38940;SDS011;43236;47.208;7.518;2022-08-18T11:44:14;6.22;;;3.75;;
38940;SDS011;43236;47.208;7.518;2022-08-18T11:47:11;7.40;;;4.05;;
38940;SDS011;43236;47.208;7.518;2022-08-18T11:50:06;6.22;;;3.63;;
38940;SDS011;43236;47.208;7.518;2022-08-18T11:52:54;5.85;;;3.47;;
38940;SDS011;43236;47.208;7.518;2022-08-18T11:55:42;7.13;;;3.58;;
38940;SDS011;43236;47.208;7.518;2022-08-18T11:58:36;6.80;;;3.88;;
38940;SDS011;43236;47.208;7.518;2022-08-18T12:01:28;7.30;;;3.60;;
38940;SDS011;43236;47.208;7.518;2022-08-18T12:04:24;5.03;;;3.08;;
38940;SDS011;43236;47.208;7.518;2022-08-18T12:07:25;5.95;;;3.60;;
38940;SDS011;43236;47.208;7.518;2022-08-18T12:10:18;7.28;;;4.00;;
38940;SDS011;43236;47.208;7.518;2022-08-18T12:13:08;9.43;;;4.15;;
38940;SDS011;43236;47.208;7.518;2022-08-18T12:16:08;8.00;;;3.75;;
38940;SDS011;43236;47.208;7.518;2022-08-18T12:18:58;6.80;;;3.78;;
38940;SDS011;43236;47.208;7.518;2022-08-18T12:21:48;9.55;;;3.78;;
38940;SDS011;43236;47.208;7.518;2022-08-18T12:24:37;8.73;;;4.07;;
38940;SDS011;43236;47.208;7.518;2022-08-18T12:27:26;5.82;;;3.75;;
38940;SDS011;43236;47.208;7.518;2022-08-18T12:30:14;7.82;;;3.80;;
38940;SDS011;43236;47.208;7.518;2022-08-18T12:33:03;7.50;;;3.78;;
38940;SDS011;43236;47.208;7.518;2022-08-18T12:35:50;9.50;;;3.78;;
38940;SDS011;43236;47.208;7.518;2022-08-18T12:38:38;6.72;;;3.65;;
38940;SDS011;43236;47.208;7.518;2022-08-18T12:41:28;7.40;;;3.88;;
38940;SDS011;43236;47.208;7.518;2022-08-18T12:44:15;9.35;;;4.03;;
38940;SDS011;43236;47.208;7.518;2022-08-18T12:47:04;8.02;;;3.60;;
38940;SDS011;43236;47.208;7.518;2022-08-18T12:49:53;6.07;;;3.35;;
38940;SDS011;43236;47.208;7.518;2022-08-18T12:52:40;8.73;;;3.85;;
38940;SDS011;43236;47.208;7.518;2022-08-18T12:55:28;6.00;;;3.45;;
38940;SDS011;43236;47.208;7.518;2022-08-18T12:58:19;6.47;;;3.83;;
38940;SDS011;43236;47.208;7.518;2022-08-18T13:01:06;6.75;;;3.97;;
38940;SDS011;43236;47.208;7.518;2022-08-18T13:03:53;9.15;;;3.78;;
38940;SDS011;43236;47.208;7.518;2022-08-18T13:06:43;6.00;;;3.70;;
38940;SDS011;43236;47.208;7.518;2022-08-18T13:09:33;6.55;;;3.50;;
38940;SDS011;43236;47.208;7.518;2022-08-18T13:12:23;7.05;;;3.53;;
38940;SDS011;43236;47.208;7.518;2022-08-18T13:15:10;6.18;;;3.42;;
38940;SDS011;43236;47.208;7.518;2022-08-18T13:17:57;7.55;;;3.63;;
38940;SDS011;43236;47.208;7.518;2022-08-18T13:20:47;6.35;;;3.58;;
38940;SDS011;43236;47.208;7.518;2022-08-18T13:23:34;5.95;;;3.30;;
38940;SDS011;43236;47.208;7.518;2022-08-18T13:26:24;6.90;;;4.03;;
38940;SDS011;43236;47.208;7.518;2022-08-18T13:29:14;6.82;;;3.85;;
38940;SDS011;43236;47.208;7.518;2022-08-18T13:32:02;6.28;;;3.50;;
38940;SDS011;43236;47.208;7.518;2022-08-18T13:34:53;6.22;;;3.28;;
38940;SDS011;43236;47.208;7.518;2022-08-18T13:37:40;6.68;;;3.55;;
38940;SDS011;43236;47.208;7.518;2022-08-18T13:40:28;8.98;;;3.63;;
38940;SDS011;43236;47.208;7.518;2022-08-18T13:43:15;8.55;;;3.65;;
38940;SDS011;43236;47.208;7.518;2022-08-18T13:46:07;8.52;;;3.38;;
38940;SDS011;43236;47.208;7.518;2022-08-18T13:48:55;6.78;;;3.53;;
38940;SDS011;43236;47.208;7.518;2022-08-18T13:51:46;7.78;;;3.72;;
38940;SDS011;43236;47.208;7.518;2022-08-18T13:54:35;6.57;;;3.10;;
38940;SDS011;43236;47.208;7.518;2022-08-18T13:57:22;6.32;;;3.85;;
38940;SDS011;43236;47.208;7.518;2022-08-18T14:00:10;6.30;;;3.10;;
38940;SDS011;43236;47.208;7.518;2022-08-18T14:03:00;7.00;;;3.47;;
38940;SDS011;43236;47.208;7.518;2022-08-18T14:05:47;6.90;;;3.50;;
38940;SDS011;43236;47.208;7.518;2022-08-18T14:08:34;6.32;;;3.40;;
38940;SDS011;43236;47.208;7.518;2022-08-18T14:11:21;6.80;;;3.38;;
38940;SDS011;43236;47.208;7.518;2022-08-18T14:14:12;5.63;;;3.55;;
38940;SDS011;43236;47.208;7.518;2022-08-18T14:17:00;6.72;;;3.53;;
38940;SDS011;43236;47.208;7.518;2022-08-18T14:19:48;5.95;;;3.53;;
38940;SDS011;43236;47.208;7.518;2022-08-18T14:22:55;6.30;;;3.17;;
38940;SDS011;43236;47.208;7.518;2022-08-18T14:26:01;6.72;;;3.30;;
38940;SDS011;43236;47.208;7.518;2022-08-18T14:31:53;6.60;;;3.58;;
38940;SDS011;43236;47.208;7.518;2022-08-18T14:34:40;7.65;;;3.40;;
38940;SDS011;43236;47.208;7.518;2022-08-18T14:37:31;7.15;;;3.55;;
38940;SDS011;43236;47.208;7.518;2022-08-18T14:40:18;7.50;;;3.50;;
38940;SDS011;43236;47.208;7.518;2022-08-18T14:43:05;5.70;;;3.15;;
38940;SDS011;43236;47.208;7.518;2022-08-18T14:45:52;4.13;;;2.75;;
38940;SDS011;43236;47.208;7.518;2022-08-18T14:48:39;6.35;;;3.65;;
38940;SDS011;43236;47.208;7.518;2022-08-18T14:51:26;7.35;;;3.08;;
38940;SDS011;43236;47.208;7.518;2022-08-18T14:54:15;5.68;;;3.22;;
38940;SDS011;43236;47.208;7.518;2022-08-18T14:57:02;7.32;;;3.30;;
38940;SDS011;43236;47.208;7.518;2022-08-18T14:59:53;6.75;;;3.55;;
38940;SDS011;43236;47.208;7.518;2022-08-18T15:02:41;5.15;;;3.20;;
38940;SDS011;43236;47.208;7.518;2022-08-18T15:05:29;6.50;;;3.05;;
38940;SDS011;43236;47.208;7.518;2022-08-18T15:08:17;6.47;;;3.55;;
38940;SDS011;43236;47.208;7.518;2022-08-18T15:11:06;8.85;;;3.70;;
38940;SDS011;43236;47.208;7.518;2022-08-18T15:13:53;7.35;;;3.67;;
38940;SDS011;43236;47.208;7.518;2022-08-18T15:16:40;6.07;;;3.30;;
38940;SDS011;43236;47.208;7.518;2022-08-18T15:19:27;6.82;;;3.25;;
38940;SDS011;43236;47.208;7.518;2022-08-18T15:22:14;7.50;;;3.33;;
38940;SDS011;43236;47.208;7.518;2022-08-18T15:28:28;6.90;;;3.30;;
38940;SDS011;43236;47.208;7.518;2022-08-18T15:31:16;5.47;;;3.40;;
38940;SDS011;43236;47.208;7.518;2022-08-18T15:34:03;7.78;;;2.97;;
38940;SDS011;43236;47.208;7.518;2022-08-18T15:36:51;6.70;;;3.35;;
38940;SDS011;43236;47.208;7.518;2022-08-18T15:39:40;9.55;;;3.58;;
38940;SDS011;43236;47.208;7.518;2022-08-18T15:42:27;9.02;;;3.60;;
38940;SDS011;43236;47.208;7.518;2022-08-18T15:45:18;6.03;;;3.42;;
38940;SDS011;43236;47.208;7.518;2022-08-18T15:48:06;6.18;;;3.20;;
38940;SDS011;43236;47.208;7.518;2022-08-18T15:50:54;6.40;;;3.42;;
38940;SDS011;43236;47.208;7.518;2022-08-18T15:53:41;8.57;;;3.90;;
38940;SDS011;43236;47.208;7.518;2022-08-18T15:56:28;6.90;;;3.47;;
38940;SDS011;43236;47.208;7.518;2022-08-18T15:59:16;7.03;;;3.15;;
38940;SDS011;43236;47.208;7.518;2022-08-18T16:02:04;9.90;;;3.50;;
38940;SDS011;43236;47.208;7.518;2022-08-18T16:04:51;5.25;;;3.10;;
38940;SDS011;43236;47.208;7.518;2022-08-18T16:07:39;7.28;;;3.60;;
38940;SDS011;43236;47.208;7.518;2022-08-18T16:10:29;7.35;;;3.63;;
38940;SDS011;43236;47.208;7.518;2022-08-18T16:13:22;7.70;;;3.63;;
38940;SDS011;43236;47.208;7.518;2022-08-18T16:16:11;6.82;;;3.80;;
38940;SDS011;43236;47.208;7.518;2022-08-18T16:19:01;9.18;;;4.50;;
38940;SDS011;43236;47.208;7.518;2022-08-18T16:21:49;7.50;;;3.50;;
38940;SDS011;43236;47.208;7.518;2022-08-18T16:24:36;7.03;;;3.70;;
38940;SDS011;43236;47.208;7.518;2022-08-18T16:27:23;5.65;;;3.25;;
38940;SDS011;43236;47.208;7.518;2022-08-18T16:30:12;5.55;;;3.42;;
38940;SDS011;43236;47.208;7.518;2022-08-18T16:33:01;6.65;;;3.60;;
38940;SDS011;43236;47.208;7.518;2022-08-18T16:35:50;5.13;;;3.33;;
38940;SDS011;43236;47.208;7.518;2022-08-18T16:38:37;5.35;;;3.42;;
38940;SDS011;43236;47.208;7.518;2022-08-18T16:41:27;7.25;;;3.35;;
38940;SDS011;43236;47.208;7.518;2022-08-18T16:44:16;6.15;;;3.33;;
38940;SDS011;43236;47.208;7.518;2022-08-18T16:47:03;6.20;;;3.47;;
38940;SDS011;43236;47.208;7.518;2022-08-18T16:49:53;5.60;;;3.30;;
38940;SDS011;43236;47.208;7.518;2022-08-18T16:52:41;5.70;;;3.30;;
38940;SDS011;43236;47.208;7.518;2022-08-18T16:55:29;6.38;;;3.08;;
38940;SDS011;43236;47.208;7.518;2022-08-18T16:58:16;10.43;;;3.55;;
38940;SDS011;43236;47.208;7.518;2022-08-18T17:01:21;9.95;;;3.70;;
38940;SDS011;43236;47.208;7.518;2022-08-18T17:04:26;7.95;;;4.05;;
38940;SDS011;43236;47.208;7.518;2022-08-18T17:07:17;6.55;;;3.60;;
38940;SDS011;43236;47.208;7.518;2022-08-18T17:10:07;6.10;;;3.72;;
38940;SDS011;43236;47.208;7.518;2022-08-18T17:12:55;7.60;;;3.90;;
38940;SDS011;43236;47.208;7.518;2022-08-18T17:15:45;6.30;;;3.63;;
38940;SDS011;43236;47.208;7.518;2022-08-18T17:18:34;8.10;;;4.07;;
38940;SDS011;43236;47.208;7.518;2022-08-18T17:21:22;6.60;;;3.65;;
38940;SDS011;43236;47.208;7.518;2022-08-18T17:24:11;6.70;;;4.20;;
38940;SDS011;43236;47.208;7.518;2022-08-18T17:27:03;8.02;;;4.03;;
38940;SDS011;43236;47.208;7.518;2022-08-18T17:29:57;6.63;;;4.00;;
38940;SDS011;43236;47.208;7.518;2022-08-18T17:32:47;7.57;;;3.78;;
38940;SDS011;43236;47.208;7.518;2022-08-18T17:35:39;6.78;;;4.07;;